sensor_id;sensor_type;location;lat;lon;timestamp;pressure;altitude;pressure_sealevel;temperature;humidity
77881;BME280;67077;50.298;18.996;2023-06-26T00:00:36;98033.56;;;15.83;61.85
77881;BME280;67077;50.298;18.996;2023-06-26T00:03:43;98031.69;;;15.78;61.76
77881;BME280;67077;50.298;18.996;2023-06-26T00:06:09;98029.95;;;15.74;62.11
77881;BME280;67077;50.298;18.996;2023-06-26T00:08:36;98031.87;;;15.70;62.16
77881;BME280;67077;50.298;18.996;2023-06-26T00:11:02;98031.46;;;15.67;62.26
77881;BME280;67077;50.298;18.996;2023-06-26T00:13:29;98026.69;;;15.64;62.61
77881;BME280;67077;50.298;18.996;2023-06-26T00:15:55;98030.46;;;15.63;62.75
77881;BME280;67077;50.298;18.996;2023-06-26T00:18:22;98026.80;;;15.59;62.73
77881;BME280;67077;50.298;18.996;2023-06-26T00:20:49;98028.67;;;15.58;62.68
77881;BME280;67077;50.298;18.996;2023-06-26T00:23:17;98030.95;;;15.60;62.82
77881;BME280;67077;50.298;18.996;2023-06-26T00:25:45;98027.96;;;15.63;62.81
77881;BME280;67077;50.298;18.996;2023-06-26T00:28:12;98029.63;;;15.64;62.92
77881;BME280;67077;50.298;18.996;2023-06-26T00:30:39;98031.21;;;15.64;63.16
77881;BME280;67077;50.298;18.996;2023-06-26T00:33:06;98032.12;;;15.64;63.17
77881;BME280;67077;50.298;18.996;2023-06-26T00:35:33;98028.66;;;15.62;63.08
77881;BME280;67077;50.298;18.996;2023-06-26T00:37:59;98029.06;;;15.61;63.03
77881;BME280;67077;50.298;18.996;2023-06-26T00:40:27;98028.10;;;15.59;62.93
77881;BME280;67077;50.298;18.996;2023-06-26T00:42:55;98027.52;;;15.57;63.01
77881;BME280;67077;50.298;18.996;2023-06-26T00:45:21;98026.95;;;15.55;62.91
77881;BME280;67077;50.298;18.996;2023-06-26T00:47:48;98025.13;;;15.52;62.78
77881;BME280;67077;50.298;18.996;2023-06-26T00:50:15;98026.58;;;15.50;62.90
77881;BME280;67077;50.298;18.996;2023-06-26T00:52:44;98023.10;;;15.47;62.95
77881;BME280;67077;50.298;18.996;2023-06-26T00:55:10;98026.98;;;15.44;63.15
77881;BME280;67077;50.298;18.996;2023-06-26T00:57:37;98026.52;;;15.44;63.10
77881;BME280;67077;50.298;18.996;2023-06-26T01:00:04;98025.55;;;15.47;63.01
77881;BME280;67077;50.298;18.996;2023-06-26T01:02:31;98021.38;;;15.49;63.00
77881;BME280;67077;50.298;18.996;2023-06-26T01:05:02;98025.38;;;15.50;62.80
77881;BME280;67077;50.298;18.996;2023-06-26T01:07:34;98021.23;;;15.50;62.82
77881;BME280;67077;50.298;18.996;2023-06-26T01:10:06;98018.55;;;15.48;63.22
77881;BME280;67077;50.298;18.996;2023-06-26T01:12:33;98015.73;;;15.47;63.53
77881;BME280;67077;50.298;18.996;2023-06-26T01:15:00;98014.94;;;15.45;63.57
77881;BME280;67077;50.298;18.996;2023-06-26T01:17:27;98010.33;;;15.42;63.83
77881;BME280;67077;50.298;18.996;2023-06-26T01:19:59;98009.14;;;15.38;64.02
77881;BME280;67077;50.298;18.996;2023-06-26T01:22:38;98009.75;;;15.35;64.04
77881;BME280;67077;50.298;18.996;2023-06-26T01:27:49;98006.33;;;15.29;64.61
77881;BME280;67077;50.298;18.996;2023-06-26T01:30:17;98008.06;;;15.32;64.72
77881;BME280;67077;50.298;18.996;2023-06-26T01:32:45;98008.31;;;15.34;64.74
77881;BME280;67077;50.298;18.996;2023-06-26T01:35:13;98002.21;;;15.33;64.91
77881;BME280;67077;50.298;18.996;2023-06-26T01:37:41;98000.23;;;15.32;64.95
77881;BME280;67077;50.298;18.996;2023-06-26T01:40:08;98001.44;;;15.30;65.01
77881;BME280;67077;50.298;18.996;2023-06-26T01:42:35;98002.07;;;15.28;65.08
77881;BME280;67077;50.298;18.996;2023-06-26T01:45:20;98001.56;;;15.27;65.35
77881;BME280;67077;50.298;18.996;2023-06-26T01:47:52;98000.61;;;15.24;65.49
77881;BME280;67077;50.298;18.996;2023-06-26T01:50:24;97995.93;;;15.20;65.52
77881;BME280;67077;50.298;18.996;2023-06-26T01:53:04;97996.34;;;15.19;65.83
77881;BME280;67077;50.298;18.996;2023-06-26T01:55:46;97997.58;;;15.21;65.96
77881;BME280;67077;50.298;18.996;2023-06-26T01:58:14;97996.62;;;15.23;66.13
77881;BME280;67077;50.298;18.996;2023-06-26T02:00:43;97996.17;;;15.22;66.25
77881;BME280;67077;50.298;18.996;2023-06-26T02:03:10;97991.79;;;15.20;66.27
77881;BME280;67077;50.298;18.996;2023-06-26T02:05:37;97988.66;;;15.18;66.55
77881;BME280;67077;50.298;18.996;2023-06-26T02:08:03;97991.19;;;15.16;66.48
77881;BME280;67077;50.298;18.996;2023-06-26T02:10:30;97989.43;;;15.12;66.79
77881;BME280;67077;50.298;18.996;2023-06-26T02:12:57;97989.00;;;15.08;66.83
77881;BME280;67077;50.298;18.996;2023-06-26T02:15:23;97990.45;;;15.07;67.08
77881;BME280;67077;50.298;18.996;2023-06-26T02:17:50;97987.11;;;15.06;67.32
77881;BME280;67077;50.298;18.996;2023-06-26T02:20:16;97987.73;;;15.06;67.24
77881;BME280;67077;50.298;18.996;2023-06-26T02:22:43;97989.02;;;15.05;67.27
77881;BME280;67077;50.298;18.996;2023-06-26T02:25:10;97992.52;;;15.00;67.61
77881;BME280;67077;50.298;18.996;2023-06-26T02:27:36;97989.95;;;14.91;68.25
77881;BME280;67077;50.298;18.996;2023-06-26T02:30:03;97991.39;;;14.82;68.53
77881;BME280;67077;50.298;18.996;2023-06-26T02:32:30;97992.83;;;14.77;68.92
77881;BME280;67077;50.298;18.996;2023-06-26T02:34:57;97994.16;;;14.75;69.18
77881;BME280;67077;50.298;18.996;2023-06-26T02:37:23;97991.04;;;14.73;69.41
77881;BME280;67077;50.298;18.996;2023-06-26T02:39:50;97996.48;;;14.70;69.72
77881;BME280;67077;50.298;18.996;2023-06-26T02:42:16;97997.08;;;14.68;69.99
77881;BME280;67077;50.298;18.996;2023-06-26T02:44:43;97995.77;;;14.64;70.24
77881;BME280;67077;50.298;18.996;2023-06-26T02:47:09;97996.39;;;14.62;70.61
77881;BME280;67077;50.298;18.996;2023-06-26T02:49:36;97992.87;;;14.62;70.90
77881;BME280;67077;50.298;18.996;2023-06-26T02:52:03;97997.11;;;14.69;71.09
77881;BME280;67077;50.298;18.996;2023-06-26T02:54:30;97998.85;;;14.83;71.23
77881;BME280;67077;50.298;18.996;2023-06-26T02:56:56;97991.17;;;14.96;71.05
77881;BME280;67077;50.298;18.996;2023-06-26T02:59:23;97994.12;;;15.13;71.06
77881;BME280;67077;50.298;18.996;2023-06-26T03:01:49;97992.15;;;15.31;70.74
77881;BME280;67077;50.298;18.996;2023-06-26T03:04:16;97996.75;;;15.54;70.70
77881;BME280;67077;50.298;18.996;2023-06-26T03:06:44;97997.68;;;15.68;70.12
77881;BME280;67077;50.298;18.996;2023-06-26T03:09:10;97994.41;;;15.74;69.79
77881;BME280;67077;50.298;18.996;2023-06-26T03:11:37;97990.77;;;15.79;69.58
77881;BME280;67077;50.298;18.996;2023-06-26T03:14:03;97994.23;;;15.81;69.30
77881;BME280;67077;50.298;18.996;2023-06-26T03:16:31;97988.05;;;15.90;69.07
77881;BME280;67077;50.298;18.996;2023-06-26T03:18:57;97988.67;;;16.07;68.82
77881;BME280;67077;50.298;18.996;2023-06-26T03:21:24;97988.04;;;16.29;68.53
77881;BME280;67077;50.298;18.996;2023-06-26T03:23:50;97993.14;;;16.58;68.23
77881;BME280;67077;50.298;18.996;2023-06-26T03:26:17;97990.13;;;16.86;67.51
77881;BME280;67077;50.298;18.996;2023-06-26T03:28:44;97985.19;;;17.15;66.94
77881;BME280;67077;50.298;18.996;2023-06-26T03:31:10;97984.94;;;17.38;66.24
77881;BME280;67077;50.298;18.996;2023-06-26T03:33:37;97987.85;;;17.41;65.88
77881;BME280;67077;50.298;18.996;2023-06-26T03:36:04;97985.42;;;17.37;65.65
77881;BME280;67077;50.298;18.996;2023-06-26T03:38:32;97985.48;;;17.29;65.31
77881;BME280;67077;50.298;18.996;2023-06-26T03:41:02;97986.73;;;17.25;65.19
77881;BME280;67077;50.298;18.996;2023-06-26T03:43:31;97987.98;;;17.35;65.05
77881;BME280;67077;50.298;18.996;2023-06-26T03:45:57;97989.05;;;17.61;64.65
77881;BME280;67077;50.298;18.996;2023-06-26T03:48:23;97990.98;;;17.91;64.18
77881;BME280;67077;50.298;18.996;2023-06-26T03:50:50;97990.04;;;18.25;63.59
77881;BME280;67077;50.298;18.996;2023-06-26T03:53:17;97988.94;;;18.57;62.84
77881;BME280;67077;50.298;18.996;2023-06-26T03:55:44;97983.20;;;18.92;62.23
77881;BME280;67077;50.298;18.996;2023-06-26T03:58:10;97980.45;;;19.30;61.19
77881;BME280;67077;50.298;18.996;2023-06-26T04:00:37;97987.05;;;19.64;60.30
77881;BME280;67077;50.298;18.996;2023-06-26T04:03:03;97987.66;;;19.92;59.55
77881;BME280;67077;50.298;18.996;2023-06-26T04:05:30;97992.25;;;20.15;58.85
77881;BME280;67077;50.298;18.996;2023-06-26T04:07:57;97988.73;;;20.36;58.06
77881;BME280;67077;50.298;18.996;2023-06-26T04:10:23;97986.94;;;20.59;57.38
77881;BME280;67077;50.298;18.996;2023-06-26T04:12:50;97989.87;;;20.77;56.70
77881;BME280;67077;50.298;18.996;2023-06-26T04:15:17;97988.97;;;20.92;56.36
77881;BME280;67077;50.298;18.996;2023-06-26T04:17:44;97982.66;;;21.09;55.97
77881;BME280;67077;50.298;18.996;2023-06-26T04:20:10;97981.19;;;21.26;55.55
77881;BME280;67077;50.298;18.996;2023-06-26T04:22:38;97978.64;;;21.39;54.93
77881;BME280;67077;50.298;18.996;2023-06-26T04:25:05;97976.59;;;21.51;54.62
77881;BME280;67077;50.298;18.996;2023-06-26T04:27:32;97974.73;;;21.63;54.31
77881;BME280;67077;50.298;18.996;2023-06-26T04:29:58;97977.00;;;21.77;53.68
77881;BME280;67077;50.298;18.996;2023-06-26T04:32:26;97975.83;;;21.90;53.17
77881;BME280;67077;50.298;18.996;2023-06-26T04:34:52;97974.66;;;22.10;52.15
77881;BME280;67077;50.298;18.996;2023-06-26T04:37:19;97975.69;;;22.27;51.75
77881;BME280;67077;50.298;18.996;2023-06-26T04:39:46;97974.67;;;22.35;52.25
77881;BME280;67077;50.298;18.996;2023-06-26T04:42:12;97976.89;;;22.42;51.76
77881;BME280;67077;50.298;18.996;2023-06-26T04:44:39;97977.34;;;22.48;51.51
77881;BME280;67077;50.298;18.996;2023-06-26T04:47:08;97974.18;;;22.49;51.38
77881;BME280;67077;50.298;18.996;2023-06-26T04:49:35;97971.17;;;22.51;51.13
77881;BME280;67077;50.298;18.996;2023-06-26T04:52:02;97977.25;;;22.54;51.00
77881;BME280;67077;50.298;18.996;2023-06-26T04:54:29;97976.48;;;22.73;51.00
77881;BME280;67077;50.298;18.996;2023-06-26T04:56:56;97977.11;;;22.95;50.69
77881;BME280;67077;50.298;18.996;2023-06-26T04:59:23;97976.86;;;23.09;50.79
77881;BME280;67077;50.298;18.996;2023-06-26T05:01:49;97975.89;;;23.15;50.82
77881;BME280;67077;50.298;18.996;2023-06-26T05:04:16;97975.88;;;23.24;50.53
77881;BME280;67077;50.298;18.996;2023-06-26T05:06:42;97979.70;;;23.25;50.15
77881;BME280;67077;50.298;18.996;2023-06-26T05:09:09;97979.57;;;23.21;50.39
77881;BME280;67077;50.298;18.996;2023-06-26T05:11:37;97979.65;;;23.17;50.29
77881;BME280;67077;50.298;18.996;2023-06-26T05:14:05;97981.59;;;23.12;50.50
77881;BME280;67077;50.298;18.996;2023-06-26T05:16:33;97980.69;;;23.15;50.63
77881;BME280;67077;50.298;18.996;2023-06-26T05:19:00;97982.67;;;23.23;50.79
77881;BME280;67077;50.298;18.996;2023-06-26T05:21:27;97978.96;;;23.27;50.96
77881;BME280;67077;50.298;18.996;2023-06-26T05:23:56;97979.77;;;23.24;50.09
77881;BME280;67077;50.298;18.996;2023-06-26T05:26:25;97976.30;;;23.29;50.09
77881;BME280;67077;50.298;18.996;2023-06-26T05:28:53;97980.04;;;23.40;49.71
77881;BME280;67077;50.298;18.996;2023-06-26T05:31:20;97978.52;;;23.45;49.38
77881;BME280;67077;50.298;18.996;2023-06-26T05:33:46;97975.71;;;23.51;49.09
77881;BME280;67077;50.298;18.996;2023-06-26T05:36:15;97975.98;;;23.48;49.27
77881;BME280;67077;50.298;18.996;2023-06-26T05:38:42;97974.75;;;23.49;49.16
77881;BME280;67077;50.298;18.996;2023-06-26T05:41:09;97975.65;;;23.45;49.41
77881;BME280;67077;50.298;18.996;2023-06-26T05:43:36;97973.19;;;23.44;49.16
77881;BME280;67077;50.298;18.996;2023-06-26T05:46:03;97974.78;;;23.50;48.25
77881;BME280;67077;50.298;18.996;2023-06-26T05:48:29;97974.13;;;23.62;47.71
77881;BME280;67077;50.298;18.996;2023-06-26T05:50:56;97975.71;;;23.73;47.36
77881;BME280;67077;50.298;18.996;2023-06-26T05:53:23;97976.88;;;23.81;47.42
77881;BME280;67077;50.298;18.996;2023-06-26T05:55:50;97970.59;;;23.92;46.53
77881;BME280;67077;50.298;18.996;2023-06-26T05:58:17;97972.33;;;23.93;46.21
77881;BME280;67077;50.298;18.996;2023-06-26T06:00:46;97971.05;;;23.92;46.15
77881;BME280;67077;50.298;18.996;2023-06-26T06:03:13;97970.31;;;23.97;45.82
77881;BME280;67077;50.298;18.996;2023-06-26T06:05:40;97968.89;;;23.94;45.28
77881;BME280;67077;50.298;18.996;2023-06-26T06:08:06;97970.84;;;23.77;45.39
77881;BME280;67077;50.298;18.996;2023-06-26T06:10:33;97974.70;;;23.58;46.08
77881;BME280;67077;50.298;18.996;2023-06-26T06:12:59;97967.28;;;23.44;47.00
77881;BME280;67077;50.298;18.996;2023-06-26T06:15:26;97966.09;;;23.32;48.41
77881;BME280;67077;50.298;18.996;2023-06-26T06:17:53;97964.41;;;23.15;48.67
77881;BME280;67077;50.298;18.996;2023-06-26T06:20:19;97968.27;;;23.06;48.99
77881;BME280;67077;50.298;18.996;2023-06-26T06:22:46;97970.98;;;22.96;49.30
77881;BME280;67077;50.298;18.996;2023-06-26T06:25:14;97969.67;;;22.89;49.44
77881;BME280;67077;50.298;18.996;2023-06-26T06:27:41;97972.89;;;22.80;49.64
77881;BME280;67077;50.298;18.996;2023-06-26T06:30:09;97974.47;;;22.74;50.55
77881;BME280;67077;50.298;18.996;2023-06-26T06:32:37;97975.16;;;22.75;49.87
77881;BME280;67077;50.298;18.996;2023-06-26T06:35:03;97971.58;;;22.57;49.21
77881;BME280;67077;50.298;18.996;2023-06-26T06:37:37;97980.19;;;22.32;49.36
77881;BME280;67077;50.298;18.996;2023-06-26T06:40:09;97978.52;;;22.29;49.86
77881;BME280;67077;50.298;18.996;2023-06-26T06:42:36;97977.84;;;22.39;49.37
77881;BME280;67077;50.298;18.996;2023-06-26T06:45:03;97977.90;;;22.45;49.17
77881;BME280;67077;50.298;18.996;2023-06-26T06:47:33;97976.39;;;22.46;49.17
77881;BME280;67077;50.298;18.996;2023-06-26T06:50:01;97974.55;;;22.51;49.67
77881;BME280;67077;50.298;18.996;2023-06-26T06:52:36;97972.63;;;22.61;48.93
77881;BME280;67077;50.298;18.996;2023-06-26T06:55:04;97971.85;;;22.64;48.27
77881;BME280;67077;50.298;18.996;2023-06-26T06:57:39;97979.75;;;22.59;48.14
77881;BME280;67077;50.298;18.996;2023-06-26T07:00:11;97976.72;;;22.50;48.46
77881;BME280;67077;50.298;18.996;2023-06-26T07:02:39;97977.06;;;22.45;48.58
77881;BME280;67077;50.298;18.996;2023-06-26T07:05:07;97978.08;;;22.44;48.78
77881;BME280;67077;50.298;18.996;2023-06-26T07:07:34;97975.46;;;22.42;49.03
77881;BME280;67077;50.298;18.996;2023-06-26T07:10:04;97972.23;;;22.45;49.16
77881;BME280;67077;50.298;18.996;2023-06-26T07:12:32;97976.77;;;22.46;49.06
77881;BME280;67077;50.298;18.996;2023-06-26T07:15:02;97972.45;;;22.51;48.91
77881;BME280;67077;50.298;18.996;2023-06-26T07:17:34;97972.73;;;22.66;49.13
77881;BME280;67077;50.298;18.996;2023-06-26T07:20:02;97971.30;;;22.72;47.87
77881;BME280;67077;50.298;18.996;2023-06-26T07:22:32;97970.31;;;22.78;48.16
77881;BME280;67077;50.298;18.996;2023-06-26T07:24:59;97971.20;;;22.89;48.68
77881;BME280;67077;50.298;18.996;2023-06-26T07:27:26;97972.57;;;23.03;48.33
77881;BME280;67077;50.298;18.996;2023-06-26T07:29:53;97972.04;;;23.10;47.50
77881;BME280;67077;50.298;18.996;2023-06-26T07:32:19;97965.77;;;23.13;46.65
77881;BME280;67077;50.298;18.996;2023-06-26T07:34:46;97969.55;;;23.10;46.94
77881;BME280;67077;50.298;18.996;2023-06-26T07:37:12;97969.71;;;23.15;46.88
77881;BME280;67077;50.298;18.996;2023-06-26T07:39:39;97970.16;;;23.20;46.26
77881;BME280;67077;50.298;18.996;2023-06-26T07:42:08;97969.70;;;23.23;46.31
77881;BME280;67077;50.298;18.996;2023-06-26T07:44:35;97974.91;;;23.25;45.86
77881;BME280;67077;50.298;18.996;2023-06-26T07:47:02;97971.50;;;23.16;46.03
77881;BME280;67077;50.298;18.996;2023-06-26T07:49:29;97971.43;;;23.10;46.15
77881;BME280;67077;50.298;18.996;2023-06-26T07:51:55;97970.59;;;23.08;46.50
77881;BME280;67077;50.298;18.996;2023-06-26T07:54:22;97969.16;;;23.10;46.86
77881;BME280;67077;50.298;18.996;2023-06-26T07:59:21;97966.10;;;23.31;46.93
77881;BME280;67077;50.298;18.996;2023-06-26T08:01:52;97964.13;;;23.44;46.79
77881;BME280;67077;50.298;18.996;2023-06-26T08:04:20;97971.11;;;23.61;46.21
77881;BME280;67077;50.298;18.996;2023-06-26T08:06:57;97966.63;;;23.76;45.06
77881;BME280;67077;50.298;18.996;2023-06-26T08:09:27;97969.20;;;23.76;44.66
77881;BME280;67077;50.298;18.996;2023-06-26T08:11:55;97965.79;;;23.81;44.61
77881;BME280;67077;50.298;18.996;2023-06-26T08:14:22;97969.15;;;23.89;44.50
77881;BME280;67077;50.298;18.996;2023-06-26T08:16:50;97971.52;;;23.93;43.20
77881;BME280;67077;50.298;18.996;2023-06-26T08:19:17;97970.59;;;23.92;42.56
77881;BME280;67077;50.298;18.996;2023-06-26T08:21:45;97970.52;;;24.03;42.36
77881;BME280;67077;50.298;18.996;2023-06-26T08:24:11;97970.08;;;24.18;41.83
77881;BME280;67077;50.298;18.996;2023-06-26T08:26:39;97971.11;;;24.33;41.32
77881;BME280;67077;50.298;18.996;2023-06-26T08:29:06;97966.33;;;24.50;40.99
77881;BME280;67077;50.298;18.996;2023-06-26T08:31:37;97965.31;;;24.58;39.74
77881;BME280;67077;50.298;18.996;2023-06-26T08:34:21;97964.17;;;24.66;40.86
77881;BME280;67077;50.298;18.996;2023-06-26T08:36:47;97963.45;;;24.88;40.69
77881;BME280;67077;50.298;18.996;2023-06-26T08:39:14;97963.89;;;25.07;40.46
77881;BME280;67077;50.298;18.996;2023-06-26T08:41:40;97963.48;;;25.12;40.66
77881;BME280;67077;50.298;18.996;2023-06-26T08:44:08;97964.84;;;25.17;40.90
77881;BME280;67077;50.298;18.996;2023-06-26T08:46:35;97959.55;;;25.27;40.52
77881;BME280;67077;50.298;18.996;2023-06-26T08:49:14;97959.06;;;25.32;40.34
77881;BME280;67077;50.298;18.996;2023-06-26T08:51:43;97957.85;;;25.26;40.23
77881;BME280;67077;50.298;18.996;2023-06-26T08:54:15;97960.33;;;25.20;40.32
77881;BME280;67077;50.298;18.996;2023-06-26T08:56:46;97955.34;;;25.12;40.75
77881;BME280;67077;50.298;18.996;2023-06-26T08:59:15;97959.88;;;25.10;40.68
77881;BME280;67077;50.298;18.996;2023-06-26T09:01:43;97955.87;;;25.02;40.88
77881;BME280;67077;50.298;18.996;2023-06-26T09:04:10;97958.58;;;25.05;41.08
77881;BME280;67077;50.298;18.996;2023-06-26T09:06:37;97955.84;;;25.15;40.28
77881;BME280;67077;50.298;18.996;2023-06-26T09:09:03;97952.17;;;25.19;40.36
77881;BME280;67077;50.298;18.996;2023-06-26T09:11:30;97953.05;;;25.28;40.22
77881;BME280;67077;50.298;18.996;2023-06-26T09:13:59;97949.52;;;25.50;40.41
77881;BME280;67077;50.298;18.996;2023-06-26T09:16:26;97951.95;;;25.75;39.78
77881;BME280;67077;50.298;18.996;2023-06-26T09:18:53;97948.59;;;25.94;38.86
77881;BME280;67077;50.298;18.996;2023-06-26T09:21:22;97949.33;;;26.11;37.85
77881;BME280;67077;50.298;18.996;2023-06-26T09:23:52;97949.60;;;26.26;36.82
77881;BME280;67077;50.298;18.996;2023-06-26T09:26:21;97945.93;;;26.40;36.23
77881;BME280;67077;50.298;18.996;2023-06-26T09:28:48;97937.64;;;26.44;36.06
77881;BME280;67077;50.298;18.996;2023-06-26T09:31:16;97938.83;;;26.42;35.92
77881;BME280;67077;50.298;18.996;2023-06-26T09:33:43;97935.98;;;26.34;36.48
77881;BME280;67077;50.298;18.996;2023-06-26T09:36:20;97939.27;;;26.32;36.86
77881;BME280;67077;50.298;18.996;2023-06-26T09:38:51;97935.23;;;26.23;36.57
77881;BME280;67077;50.298;18.996;2023-06-26T09:41:18;97935.95;;;26.18;36.82
77881;BME280;67077;50.298;18.996;2023-06-26T09:43:50;97934.89;;;26.14;36.97
77881;BME280;67077;50.298;18.996;2023-06-26T09:46:23;97936.29;;;26.13;36.41
77881;BME280;67077;50.298;18.996;2023-06-26T09:49:04;97933.10;;;26.13;36.41
77881;BME280;67077;50.298;18.996;2023-06-26T09:51:34;97933.55;;;26.09;35.68
77881;BME280;67077;50.298;18.996;2023-06-26T09:54:03;97931.96;;;26.01;35.50
77881;BME280;67077;50.298;18.996;2023-06-26T09:56:31;97931.27;;;26.06;35.32
77881;BME280;67077;50.298;18.996;2023-06-26T09:59:04;97928.18;;;26.06;35.40
77881;BME280;67077;50.298;18.996;2023-06-26T10:02:00;97926.31;;;26.08;35.34
77881;BME280;67077;50.298;18.996;2023-06-26T10:04:28;97923.52;;;26.16;34.94
77881;BME280;67077;50.298;18.996;2023-06-26T10:06:56;97919.28;;;26.17;33.98
77881;BME280;67077;50.298;18.996;2023-06-26T10:09:24;97917.03;;;26.13;34.03
77881;BME280;67077;50.298;18.996;2023-06-26T10:12:01;97915.95;;;26.14;34.40
77881;BME280;67077;50.298;18.996;2023-06-26T10:14:41;97917.11;;;26.19;34.42
77881;BME280;67077;50.298;18.996;2023-06-26T10:17:10;97916.16;;;26.20;34.79
77881;BME280;67077;50.298;18.996;2023-06-26T10:19:44;97908.09;;;26.31;34.91
77881;BME280;67077;50.298;18.996;2023-06-26T10:22:20;97909.95;;;26.30;34.74
77881;BME280;67077;50.298;18.996;2023-06-26T10:24:50;97906.05;;;26.35;34.73
77881;BME280;67077;50.298;18.996;2023-06-26T10:27:21;97904.50;;;26.39;34.50
77881;BME280;67077;50.298;18.996;2023-06-26T10:29:53;97902.89;;;26.40;34.66
77881;BME280;67077;50.298;18.996;2023-06-26T10:32:21;97900.58;;;26.37;34.72
77881;BME280;67077;50.298;18.996;2023-06-26T10:34:50;97895.98;;;26.27;35.01
77881;BME280;67077;50.298;18.996;2023-06-26T10:40:10;97888.35;;;26.26;35.04
77881;BME280;67077;50.298;18.996;2023-06-26T10:42:38;97886.95;;;26.32;35.57
77881;BME280;67077;50.298;18.996;2023-06-26T10:45:15;97885.66;;;26.45;35.19
77881;BME280;67077;50.298;18.996;2023-06-26T10:47:46;97878.00;;;26.54;35.13
77881;BME280;67077;50.298;18.996;2023-06-26T10:50:28;97883.09;;;26.64;34.61
77881;BME280;67077;50.298;18.996;2023-06-26T10:55:55;97884.38;;;26.73;33.67
77881;BME280;67077;50.298;18.996;2023-06-26T11:03:46;97877.77;;;26.25;34.11
77881;BME280;67077;50.298;18.996;2023-06-26T11:06:14;97868.66;;;26.29;34.25
77881;BME280;67077;50.298;18.996;2023-06-26T11:08:52;97867.92;;;26.36;34.64
77881;BME280;67077;50.298;18.996;2023-06-26T11:11:22;97867.06;;;26.54;34.76
77881;BME280;67077;50.298;18.996;2023-06-26T11:14:08;97866.36;;;26.69;34.63
77881;BME280;67077;50.298;18.996;2023-06-26T11:16:46;97867.07;;;26.85;34.47
77881;BME280;67077;50.298;18.996;2023-06-26T11:19:18;97868.64;;;26.90;33.04
77881;BME280;67077;50.298;18.996;2023-06-26T11:21:45;97867.79;;;26.93;32.84
77881;BME280;67077;50.298;18.996;2023-06-26T11:24:13;97866.81;;;26.92;33.09
77881;BME280;67077;50.298;18.996;2023-06-26T11:26:44;97865.86;;;26.99;33.71
77881;BME280;67077;50.298;18.996;2023-06-26T11:29:12;97866.39;;;27.11;33.69
77881;BME280;67077;50.298;18.996;2023-06-26T11:31:41;97860.91;;;27.19;33.56
77881;BME280;67077;50.298;18.996;2023-06-26T11:34:12;97861.52;;;27.29;33.36
77881;BME280;67077;50.298;18.996;2023-06-26T11:36:41;97862.48;;;27.35;33.07
77881;BME280;67077;50.298;18.996;2023-06-26T11:39:09;97858.38;;;27.34;32.82
77881;BME280;67077;50.298;18.996;2023-06-26T11:41:38;97858.20;;;27.26;33.16
77881;BME280;67077;50.298;18.996;2023-06-26T11:44:07;97857.80;;;27.12;33.49
77881;BME280;67077;50.298;18.996;2023-06-26T11:46:35;97856.66;;;27.08;33.95
77881;BME280;67077;50.298;18.996;2023-06-26T11:49:06;97851.66;;;27.10;33.70
77881;BME280;67077;50.298;18.996;2023-06-26T11:51:34;97849.65;;;27.11;33.60
77881;BME280;67077;50.298;18.996;2023-06-26T11:54:03;97847.75;;;27.09;33.73
77881;BME280;67077;50.298;18.996;2023-06-26T11:56:31;97851.48;;;27.17;33.36
77881;BME280;67077;50.298;18.996;2023-06-26T11:59:05;97849.09;;;27.18;33.05
77881;BME280;67077;50.298;18.996;2023-06-26T12:01:37;97842.17;;;27.30;33.11
77881;BME280;67077;50.298;18.996;2023-06-26T12:04:08;97840.02;;;27.43;32.88
77881;BME280;67077;50.298;18.996;2023-06-26T12:06:38;97838.25;;;27.54;32.83
77881;BME280;67077;50.298;18.996;2023-06-26T12:09:09;97832.86;;;27.64;32.23
77881;BME280;67077;50.298;18.996;2023-06-26T12:11:39;97831.73;;;27.64;31.34
77881;BME280;67077;50.298;18.996;2023-06-26T12:14:08;97825.80;;;27.50;31.44
77881;BME280;67077;50.298;18.996;2023-06-26T12:16:36;97825.82;;;27.43;32.39
77881;BME280;67077;50.298;18.996;2023-06-26T12:19:07;97828.15;;;27.50;32.53
77881;BME280;67077;50.298;18.996;2023-06-26T12:24:10;97821.69;;;27.60;32.00
77881;BME280;67077;50.298;18.996;2023-06-26T12:26:43;97820.38;;;27.65;31.90
77881;BME280;67077;50.298;18.996;2023-06-26T12:29:14;97818.80;;;27.65;32.04
77881;BME280;67077;50.298;18.996;2023-06-26T12:31:43;97814.77;;;27.72;32.71
77881;BME280;67077;50.298;18.996;2023-06-26T12:34:13;97815.11;;;27.76;32.30
77881;BME280;67077;50.298;18.996;2023-06-26T12:36:50;97814.44;;;27.73;32.72
77881;BME280;67077;50.298;18.996;2023-06-26T12:39:21;97817.50;;;27.67;32.49
77881;BME280;67077;50.298;18.996;2023-06-26T12:41:52;97819.27;;;27.40;32.17
77881;BME280;67077;50.298;18.996;2023-06-26T12:44:29;97819.50;;;27.20;32.89
77881;BME280;67077;50.298;18.996;2023-06-26T12:46:58;97816.30;;;27.23;32.97
77881;BME280;67077;50.298;18.996;2023-06-26T12:49:33;97812.85;;;27.22;32.75
77881;BME280;67077;50.298;18.996;2023-06-26T12:52:12;97810.45;;;27.27;33.04
77881;BME280;67077;50.298;18.996;2023-06-26T12:54:52;97808.79;;;27.49;32.89
77881;BME280;67077;50.298;18.996;2023-06-26T12:57:23;97809.83;;;27.63;32.36
77881;BME280;67077;50.298;18.996;2023-06-26T13:00:11;97805.43;;;27.72;32.24
77881;BME280;67077;50.298;18.996;2023-06-26T13:02:38;97804.48;;;27.83;32.10
77881;BME280;67077;50.298;18.996;2023-06-26T13:05:05;97804.96;;;28.02;32.76
77881;BME280;67077;50.298;18.996;2023-06-26T13:07:32;97800.41;;;28.22;32.62
77881;BME280;67077;50.298;18.996;2023-06-26T13:09:59;97797.41;;;28.32;32.09
77881;BME280;67077;50.298;18.996;2023-06-26T13:12:26;97793.89;;;28.33;31.92
77881;BME280;67077;50.298;18.996;2023-06-26T13:14:52;97795.21;;;28.30;31.97
77881;BME280;67077;50.298;18.996;2023-06-26T13:17:19;97793.69;;;28.32;31.56